sensor_id;sensor_type;location;lat;lon;timestamp;P1;durP1;ratioP1;P2;durP2;ratioP2
17987;SDS011;9119;50.932;5.342;2023-06-26T00:01:23;12.80;;;6.13;;
17987;SDS011;9119;50.932;5.342;2023-06-26T00:03:48;10.97;;;6.33;;
17987;SDS011;9119;50.932;5.342;2023-06-26T00:06:14;8.00;;;5.87;;
17987;SDS011;9119;50.932;5.342;2023-06-26T00:08:40;8.60;;;5.90;;
17987;SDS011;9119;50.932;5.342;2023-06-26T00:11:05;9.27;;;5.80;;
17987;SDS011;9119;50.932;5.342;2023-06-26T00:13:31;9.20;;;6.10;;
17987;SDS011;9119;50.932;5.342;2023-06-26T00:15:57;8.27;;;6.33;;
17987;SDS011;9119;50.932;5.342;2023-06-26T00:18:22;10.07;;;6.10;;
17987;SDS011;9119;50.932;5.342;2023-06-26T00:20:48;11.30;;;5.90;;
17987;SDS011;9119;50.932;5.342;2023-06-26T00:23:16;9.63;;;5.63;;
17987;SDS011;9119;50.932;5.342;2023-06-26T00:25:42;8.57;;;5.83;;
17987;SDS011;9119;50.932;5.342;2023-06-26T00:28:08;9.40;;;5.63;;
17987;SDS011;9119;50.932;5.342;2023-06-26T00:30:34;10.93;;;5.77;;
17987;SDS011;9119;50.932;5.342;2023-06-26T00:33:00;14.23;;;6.10;;
17987;SDS011;9119;50.932;5.342;2023-06-26T00:35:26;12.30;;;6.03;;
17987;SDS011;9119;50.932;5.342;2023-06-26T00:37:52;10.40;;;5.50;;
17987;SDS011;9119;50.932;5.342;2023-06-26T00:40:20;8.47;;;5.77;;
17987;SDS011;9119;50.932;5.342;2023-06-26T00:42:46;8.73;;;5.77;;
17987;SDS011;9119;50.932;5.342;2023-06-26T00:45:12;9.50;;;6.07;;
17987;SDS011;9119;50.932;5.342;2023-06-26T00:47:37;10.23;;;5.90;;
17987;SDS011;9119;50.932;5.342;2023-06-26T00:50:04;9.10;;;5.53;;
17987;SDS011;9119;50.932;5.342;2023-06-26T00:52:30;9.83;;;6.10;;
17987;SDS011;9119;50.932;5.342;2023-06-26T00:54:56;10.47;;;6.33;;
17987;SDS011;9119;50.932;5.342;2023-06-26T00:57:23;12.67;;;6.23;;
17987;SDS011;9119;50.932;5.342;2023-06-26T00:59:49;8.10;;;6.10;;
17987;SDS011;9119;50.932;5.342;2023-06-26T01:02:15;13.30;;;5.87;;
17987;SDS011;9119;50.932;5.342;2023-06-26T01:04:51;10.23;;;5.70;;
17987;SDS011;9119;50.932;5.342;2023-06-26T01:07:18;9.33;;;6.47;;
17987;SDS011;9119;50.932;5.342;2023-06-26T01:09:46;10.67;;;6.30;;
17987;SDS011;9119;50.932;5.342;2023-06-26T01:12:13;8.93;;;6.10;;
17987;SDS011;9119;50.932;5.342;2023-06-26T01:14:39;8.50;;;5.30;;
17987;SDS011;9119;50.932;5.342;2023-06-26T01:17:05;8.87;;;5.80;;
17987;SDS011;9119;50.932;5.342;2023-06-26T01:19:32;11.20;;;5.77;;
17987;SDS011;9119;50.932;5.342;2023-06-26T01:25:13;8.80;;;4.93;;
17987;SDS011;9119;50.932;5.342;2023-06-26T01:28:04;11.10;;;5.60;;
17987;SDS011;9119;50.932;5.342;2023-06-26T01:30:35;11.97;;;5.13;;
17987;SDS011;9119;50.932;5.342;2023-06-26T01:33:05;7.30;;;4.93;;
17987;SDS011;9119;50.932;5.342;2023-06-26T01:35:30;9.33;;;5.50;;
17987;SDS011;9119;50.932;5.342;2023-06-26T01:40:39;13.33;;;5.50;;
17987;SDS011;9119;50.932;5.342;2023-06-26T01:43:06;8.87;;;5.37;;
17987;SDS011;9119;50.932;5.342;2023-06-26T01:45:54;16.10;;;6.17;;
17987;SDS011;9119;50.932;5.342;2023-06-26T01:48:49;9.33;;;6.10;;
17987;SDS011;9119;50.932;5.342;2023-06-26T01:51:23;20.77;;;6.87;;
17987;SDS011;9119;50.932;5.342;2023-06-26T01:53:57;9.00;;;5.90;;
17987;SDS011;9119;50.932;5.342;2023-06-26T01:56:25;11.57;;;5.77;;
17987;SDS011;9119;50.932;5.342;2023-06-26T01:58:53;12.33;;;6.00;;
17987;SDS011;9119;50.932;5.342;2023-06-26T02:01:20;11.67;;;5.70;;
17987;SDS011;9119;50.932;5.342;2023-06-26T02:03:47;13.80;;;6.40;;
17987;SDS011;9119;50.932;5.342;2023-06-26T02:06:13;11.73;;;6.13;;
17987;SDS011;9119;50.932;5.342;2023-06-26T02:08:39;20.57;;;6.47;;
17987;SDS011;9119;50.932;5.342;2023-06-26T02:11:05;13.63;;;6.57;;
17987;SDS011;9119;50.932;5.342;2023-06-26T02:13:31;12.07;;;6.27;;
17987;SDS011;9119;50.932;5.342;2023-06-26T02:15:57;8.70;;;5.83;;
17987;SDS011;9119;50.932;5.342;2023-06-26T02:18:23;8.63;;;5.33;;
17987;SDS011;9119;50.932;5.342;2023-06-26T02:20:49;8.00;;;5.43;;
17987;SDS011;9119;50.932;5.342;2023-06-26T02:23:15;10.70;;;5.97;;
17987;SDS011;9119;50.932;5.342;2023-06-26T02:25:41;9.83;;;5.60;;
17987;SDS011;9119;50.932;5.342;2023-06-26T02:28:06;10.73;;;5.73;;
17987;SDS011;9119;50.932;5.342;2023-06-26T02:30:32;12.57;;;5.33;;
17987;SDS011;9119;50.932;5.342;2023-06-26T02:32:57;10.77;;;5.97;;
17987;SDS011;9119;50.932;5.342;2023-06-26T02:35:23;12.23;;;5.30;;
17987;SDS011;9119;50.932;5.342;2023-06-26T02:37:49;11.10;;;5.10;;
17987;SDS011;9119;50.932;5.342;2023-06-26T02:40:15;7.37;;;5.40;;
17987;SDS011;9119;50.932;5.342;2023-06-26T02:42:41;10.67;;;5.57;;
17987;SDS011;9119;50.932;5.342;2023-06-26T02:45:07;11.20;;;4.90;;
17987;SDS011;9119;50.932;5.342;2023-06-26T02:47:36;13.53;;;5.20;;
17987;SDS011;9119;50.932;5.342;2023-06-26T02:50:05;9.57;;;5.03;;
17987;SDS011;9119;50.932;5.342;2023-06-26T02:52:31;11.40;;;4.90;;
17987;SDS011;9119;50.932;5.342;2023-06-26T02:54:57;8.70;;;4.80;;
17987;SDS011;9119;50.932;5.342;2023-06-26T02:57:23;8.70;;;4.83;;
17987;SDS011;9119;50.932;5.342;2023-06-26T02:59:48;9.17;;;4.93;;
17987;SDS011;9119;50.932;5.342;2023-06-26T03:02:14;11.90;;;4.77;;
17987;SDS011;9119;50.932;5.342;2023-06-26T03:04:40;8.67;;;5.00;;
17987;SDS011;9119;50.932;5.342;2023-06-26T03:07:05;7.10;;;4.20;;
17987;SDS011;9119;50.932;5.342;2023-06-26T03:09:31;9.77;;;4.27;;
17987;SDS011;9119;50.932;5.342;2023-06-26T03:11:56;6.83;;;4.23;;
17987;SDS011;9119;50.932;5.342;2023-06-26T03:14:22;6.80;;;4.20;;
17987;SDS011;9119;50.932;5.342;2023-06-26T03:16:48;7.03;;;4.30;;
17987;SDS011;9119;50.932;5.342;2023-06-26T03:19:16;12.50;;;4.53;;
17987;SDS011;9119;50.932;5.342;2023-06-26T03:21:41;7.73;;;4.47;;
17987;SDS011;9119;50.932;5.342;2023-06-26T03:24:07;8.60;;;4.93;;
17987;SDS011;9119;50.932;5.342;2023-06-26T03:26:33;9.37;;;4.10;;
17987;SDS011;9119;50.932;5.342;2023-06-26T03:28:58;13.43;;;4.50;;
17987;SDS011;9119;50.932;5.342;2023-06-26T03:31:24;10.47;;;4.40;;
17987;SDS011;9119;50.932;5.342;2023-06-26T03:33:50;8.53;;;4.77;;
17987;SDS011;9119;50.932;5.342;2023-06-26T03:36:15;10.43;;;3.97;;
17987;SDS011;9119;50.932;5.342;2023-06-26T03:38:41;8.43;;;4.60;;
17987;SDS011;9119;50.932;5.342;2023-06-26T03:41:07;10.30;;;4.80;;
17987;SDS011;9119;50.932;5.342;2023-06-26T03:43:32;15.80;;;4.60;;
17987;SDS011;9119;50.932;5.342;2023-06-26T03:45:58;11.83;;;4.60;;
17987;SDS011;9119;50.932;5.342;2023-06-26T03:48:23;10.80;;;4.37;;
17987;SDS011;9119;50.932;5.342;2023-06-26T03:50:53;10.53;;;4.27;;
17987;SDS011;9119;50.932;5.342;2023-06-26T03:53:18;9.47;;;4.40;;
17987;SDS011;9119;50.932;5.342;2023-06-26T03:55:44;5.93;;;4.03;;
17987;SDS011;9119;50.932;5.342;2023-06-26T03:58:09;11.17;;;4.33;;
17987;SDS011;9119;50.932;5.342;2023-06-26T04:00:35;7.20;;;4.07;;
17987;SDS011;9119;50.932;5.342;2023-06-26T04:03:01;11.33;;;4.97;;
17987;SDS011;9119;50.932;5.342;2023-06-26T04:05:27;9.27;;;4.20;;
17987;SDS011;9119;50.932;5.342;2023-06-26T04:07:53;6.67;;;3.73;;
17987;SDS011;9119;50.932;5.342;2023-06-26T04:10:19;10.53;;;3.53;;
17987;SDS011;9119;50.932;5.342;2023-06-26T04:12:46;11.37;;;4.53;;
17987;SDS011;9119;50.932;5.342;2023-06-26T04:15:12;13.57;;;4.53;;
17987;SDS011;9119;50.932;5.342;2023-06-26T04:17:38;8.27;;;4.17;;
17987;SDS011;9119;50.932;5.342;2023-06-26T04:20:04;7.57;;;3.93;;
17987;SDS011;9119;50.932;5.342;2023-06-26T04:22:33;11.07;;;4.00;;
17987;SDS011;9119;50.932;5.342;2023-06-26T04:25:01;11.23;;;5.20;;
17987;SDS011;9119;50.932;5.342;2023-06-26T04:27:28;11.37;;;4.37;;
17987;SDS011;9119;50.932;5.342;2023-06-26T04:29:55;18.37;;;5.17;;
17987;SDS011;9119;50.932;5.342;2023-06-26T04:32:21;7.90;;;3.97;;
17987;SDS011;9119;50.932;5.342;2023-06-26T04:34:46;9.43;;;4.63;;
17987;SDS011;9119;50.932;5.342;2023-06-26T04:37:12;13.93;;;4.20;;
17987;SDS011;9119;50.932;5.342;2023-06-26T04:39:41;9.10;;;4.23;;
17987;SDS011;9119;50.932;5.342;2023-06-26T04:42:07;13.03;;;4.20;;
17987;SDS011;9119;50.932;5.342;2023-06-26T04:44:32;10.13;;;3.80;;
17987;SDS011;9119;50.932;5.342;2023-06-26T04:46:58;11.43;;;4.37;;
17987;SDS011;9119;50.932;5.342;2023-06-26T04:49:24;11.03;;;4.77;;
17987;SDS011;9119;50.932;5.342;2023-06-26T04:51:49;9.70;;;4.57;;
17987;SDS011;9119;50.932;5.342;2023-06-26T04:54:16;11.57;;;5.30;;
17987;SDS011;9119;50.932;5.342;2023-06-26T04:56:41;12.57;;;4.23;;
17987;SDS011;9119;50.932;5.342;2023-06-26T04:59:08;10.33;;;4.43;;
17987;SDS011;9119;50.932;5.342;2023-06-26T05:01:38;9.13;;;4.20;;
17987;SDS011;9119;50.932;5.342;2023-06-26T05:04:04;12.97;;;4.60;;
17987;SDS011;9119;50.932;5.342;2023-06-26T05:06:31;15.30;;;5.17;;
17987;SDS011;9119;50.932;5.342;2023-06-26T05:08:56;17.03;;;4.67;;
17987;SDS011;9119;50.932;5.342;2023-06-26T05:11:22;15.20;;;5.20;;
17987;SDS011;9119;50.932;5.342;2023-06-26T05:13:50;13.90;;;4.57;;
17987;SDS011;9119;50.932;5.342;2023-06-26T05:16:16;12.97;;;4.53;;
17987;SDS011;9119;50.932;5.342;2023-06-26T05:18:41;18.97;;;5.10;;
17987;SDS011;9119;50.932;5.342;2023-06-26T05:21:07;12.53;;;4.67;;
17987;SDS011;9119;50.932;5.342;2023-06-26T05:23:34;13.37;;;4.97;;
17987;SDS011;9119;50.932;5.342;2023-06-26T05:26:00;14.10;;;5.87;;
17987;SDS011;9119;50.932;5.342;2023-06-26T05:28:27;17.67;;;5.00;;
17987;SDS011;9119;50.932;5.342;2023-06-26T05:30:56;14.80;;;5.47;;
17987;SDS011;9119;50.932;5.342;2023-06-26T05:33:23;16.93;;;5.00;;
17987;SDS011;9119;50.932;5.342;2023-06-26T05:35:50;16.53;;;5.00;;
17987;SDS011;9119;50.932;5.342;2023-06-26T05:38:18;17.00;;;4.97;;
17987;SDS011;9119;50.932;5.342;2023-06-26T05:40:44;17.77;;;4.47;;
17987;SDS011;9119;50.932;5.342;2023-06-26T05:43:10;18.93;;;4.90;;
17987;SDS011;9119;50.932;5.342;2023-06-26T05:45:36;19.23;;;4.63;;
17987;SDS011;9119;50.932;5.342;2023-06-26T05:48:02;18.03;;;5.13;;
17987;SDS011;9119;50.932;5.342;2023-06-26T05:50:28;18.03;;;4.40;;
17987;SDS011;9119;50.932;5.342;2023-06-26T05:52:54;18.13;;;4.80;;
17987;SDS011;9119;50.932;5.342;2023-06-26T05:55:20;14.77;;;4.77;;
17987;SDS011;9119;50.932;5.342;2023-06-26T05:57:46;24.00;;;4.97;;
17987;SDS011;9119;50.932;5.342;2023-06-26T06:00:12;10.10;;;4.03;;
17987;SDS011;9119;50.932;5.342;2023-06-26T06:02:39;15.57;;;4.70;;
17987;SDS011;9119;50.932;5.342;2023-06-26T06:05:06;17.57;;;5.57;;
17987;SDS011;9119;50.932;5.342;2023-06-26T06:07:33;23.17;;;6.03;;
17987;SDS011;9119;50.932;5.342;2023-06-26T06:09:59;22.17;;;5.17;;
17987;SDS011;9119;50.932;5.342;2023-06-26T06:12:26;25.20;;;5.33;;
17987;SDS011;9119;50.932;5.342;2023-06-26T06:14:52;19.80;;;4.50;;
17987;SDS011;9119;50.932;5.342;2023-06-26T06:17:21;19.60;;;4.43;;
17987;SDS011;9119;50.932;5.342;2023-06-26T06:19:47;16.00;;;4.50;;
17987;SDS011;9119;50.932;5.342;2023-06-26T06:22:13;20.17;;;5.07;;
17987;SDS011;9119;50.932;5.342;2023-06-26T06:24:38;16.20;;;4.40;;
17987;SDS011;9119;50.932;5.342;2023-06-26T06:27:04;18.70;;;4.60;;
17987;SDS011;9119;50.932;5.342;2023-06-26T06:29:30;21.50;;;4.30;;
17987;SDS011;9119;50.932;5.342;2023-06-26T06:31:56;12.90;;;4.20;;
17987;SDS011;9119;50.932;5.342;2023-06-26T06:34:22;18.10;;;4.60;;
17987;SDS011;9119;50.932;5.342;2023-06-26T06:36:48;18.30;;;4.50;;
17987;SDS011;9119;50.932;5.342;2023-06-26T06:39:14;12.67;;;4.33;;
17987;SDS011;9119;50.932;5.342;2023-06-26T06:41:40;20.70;;;4.13;;
17987;SDS011;9119;50.932;5.342;2023-06-26T06:44:06;16.43;;;4.37;;
17987;SDS011;9119;50.932;5.342;2023-06-26T06:46:32;15.90;;;4.07;;
17987;SDS011;9119;50.932;5.342;2023-06-26T06:48:57;15.80;;;4.37;;
17987;SDS011;9119;50.932;5.342;2023-06-26T06:51:23;17.20;;;4.00;;
17987;SDS011;9119;50.932;5.342;2023-06-26T06:53:48;15.50;;;3.67;;
17987;SDS011;9119;50.932;5.342;2023-06-26T06:56:14;16.07;;;3.83;;
17987;SDS011;9119;50.932;5.342;2023-06-26T06:58:40;15.73;;;4.03;;
17987;SDS011;9119;50.932;5.342;2023-06-26T07:01:07;15.00;;;4.10;;
17987;SDS011;9119;50.932;5.342;2023-06-26T07:03:34;18.77;;;3.73;;
17987;SDS011;9119;50.932;5.342;2023-06-26T07:06:00;18.80;;;4.00;;
17987;SDS011;9119;50.932;5.342;2023-06-26T07:08:26;10.50;;;3.50;;
17987;SDS011;9119;50.932;5.342;2023-06-26T07:10:52;16.77;;;4.03;;
17987;SDS011;9119;50.932;5.342;2023-06-26T07:13:18;12.57;;;4.00;;
17987;SDS011;9119;50.932;5.342;2023-06-26T07:15:44;15.67;;;3.77;;
17987;SDS011;9119;50.932;5.342;2023-06-26T07:18:10;13.83;;;3.63;;
17987;SDS011;9119;50.932;5.342;2023-06-26T07:20:36;18.00;;;4.10;;
17987;SDS011;9119;50.932;5.342;2023-06-26T07:23:02;14.73;;;3.97;;
17987;SDS011;9119;50.932;5.342;2023-06-26T07:25:27;13.40;;;4.00;;
17987;SDS011;9119;50.932;5.342;2023-06-26T07:27:53;20.80;;;4.30;;
17987;SDS011;9119;50.932;5.342;2023-06-26T07:30:18;13.87;;;4.20;;
17987;SDS011;9119;50.932;5.342;2023-06-26T07:32:44;16.63;;;4.20;;
17987;SDS011;9119;50.932;5.342;2023-06-26T07:35:10;13.60;;;3.43;;
17987;SDS011;9119;50.932;5.342;2023-06-26T07:37:36;10.70;;;3.77;;
17987;SDS011;9119;50.932;5.342;2023-06-26T07:40:02;16.63;;;3.70;;
17987;SDS011;9119;50.932;5.342;2023-06-26T07:42:28;15.27;;;3.77;;
17987;SDS011;9119;50.932;5.342;2023-06-26T07:44:53;14.70;;;3.57;;
17987;SDS011;9119;50.932;5.342;2023-06-26T07:47:19;11.47;;;3.60;;
17987;SDS011;9119;50.932;5.342;2023-06-26T07:49:45;20.57;;;4.17;;
17987;SDS011;9119;50.932;5.342;2023-06-26T07:52:10;20.53;;;3.80;;
17987;SDS011;9119;50.932;5.342;2023-06-26T07:54:36;16.17;;;3.40;;
17987;SDS011;9119;50.932;5.342;2023-06-26T07:57:03;14.23;;;3.03;;
17987;SDS011;9119;50.932;5.342;2023-06-26T07:59:33;13.10;;;3.10;;
17987;SDS011;9119;50.932;5.342;2023-06-26T08:01:59;17.60;;;3.67;;
17987;SDS011;9119;50.932;5.342;2023-06-26T08:04:26;13.20;;;3.27;;
17987;SDS011;9119;50.932;5.342;2023-06-26T08:06:55;15.20;;;3.80;;
17987;SDS011;9119;50.932;5.342;2023-06-26T08:09:23;11.27;;;3.50;;
17987;SDS011;9119;50.932;5.342;2023-06-26T08:11:50;19.07;;;3.50;;
17987;SDS011;9119;50.932;5.342;2023-06-26T08:14:16;20.77;;;3.90;;
17987;SDS011;9119;50.932;5.342;2023-06-26T08:16:43;13.13;;;3.20;;
17987;SDS011;9119;50.932;5.342;2023-06-26T08:19:09;15.07;;;3.00;;
17987;SDS011;9119;50.932;5.342;2023-06-26T08:21:36;13.63;;;3.67;;
17987;SDS011;9119;50.932;5.342;2023-06-26T08:24:01;17.33;;;3.80;;
17987;SDS011;9119;50.932;5.342;2023-06-26T08:26:27;15.70;;;3.63;;
17987;SDS011;9119;50.932;5.342;2023-06-26T08:28:53;11.40;;;3.07;;
17987;SDS011;9119;50.932;5.342;2023-06-26T08:31:19;17.77;;;3.47;;
17987;SDS011;9119;50.932;5.342;2023-06-26T08:33:45;12.10;;;3.10;;
17987;SDS011;9119;50.932;5.342;2023-06-26T08:36:12;13.23;;;3.43;;
17987;SDS011;9119;50.932;5.342;2023-06-26T08:38:37;12.23;;;3.50;;
17987;SDS011;9119;50.932;5.342;2023-06-26T08:41:09;16.17;;;3.80;;
17987;SDS011;9119;50.932;5.342;2023-06-26T08:43:35;9.07;;;2.77;;
17987;SDS011;9119;50.932;5.342;2023-06-26T08:46:01;13.10;;;3.10;;
17987;SDS011;9119;50.932;5.342;2023-06-26T08:48:31;12.03;;;3.20;;
17987;SDS011;9119;50.932;5.342;2023-06-26T08:51:04;11.93;;;3.47;;
17987;SDS011;9119;50.932;5.342;2023-06-26T08:56:02;12.37;;;3.23;;
17987;SDS011;9119;50.932;5.342;2023-06-26T08:58:29;14.77;;;3.50;;
17987;SDS011;9119;50.932;5.342;2023-06-26T09:00:55;10.57;;;3.40;;
17987;SDS011;9119;50.932;5.342;2023-06-26T09:03:22;10.57;;;3.47;;
17987;SDS011;9119;50.932;5.342;2023-06-26T09:05:50;14.23;;;3.40;;
17987;SDS011;9119;50.932;5.342;2023-06-26T09:08:15;13.50;;;3.17;;
17987;SDS011;9119;50.932;5.342;2023-06-26T09:10:41;11.70;;;3.27;;
17987;SDS011;9119;50.932;5.342;2023-06-26T09:13:07;12.77;;;3.10;;
17987;SDS011;9119;50.932;5.342;2023-06-26T09:15:42;9.13;;;2.83;;
17987;SDS011;9119;50.932;5.342;2023-06-26T09:18:09;14.57;;;3.07;;
17987;SDS011;9119;50.932;5.342;2023-06-26T09:20:35;14.77;;;3.37;;
17987;SDS011;9119;50.932;5.342;2023-06-26T09:23:01;6.63;;;2.23;;
17987;SDS011;9119;50.932;5.342;2023-06-26T09:25:30;11.57;;;3.23;;
17987;SDS011;9119;50.932;5.342;2023-06-26T09:27:56;13.87;;;2.90;;
17987;SDS011;9119;50.932;5.342;2023-06-26T09:30:22;11.73;;;2.80;;
17987;SDS011;9119;50.932;5.342;2023-06-26T09:32:48;12.23;;;2.90;;
17987;SDS011;9119;50.932;5.342;2023-06-26T09:35:15;12.53;;;2.70;;
17987;SDS011;9119;50.932;5.342;2023-06-26T09:37:44;13.83;;;2.70;;
17987;SDS011;9119;50.932;5.342;2023-06-26T09:40:10;9.47;;;2.60;;
17987;SDS011;9119;50.932;5.342;2023-06-26T09:42:35;9.97;;;2.40;;
17987;SDS011;9119;50.932;5.342;2023-06-26T09:45:02;8.40;;;2.50;;
17987;SDS011;9119;50.932;5.342;2023-06-26T09:47:30;7.87;;;2.70;;
17987;SDS011;9119;50.932;5.342;2023-06-26T09:49:58;12.03;;;2.40;;
17987;SDS011;9119;50.932;5.342;2023-06-26T09:52:25;7.50;;;1.97;;
17987;SDS011;9119;50.932;5.342;2023-06-26T09:55:07;8.47;;;2.20;;
17987;SDS011;9119;50.932;5.342;2023-06-26T09:57:34;7.47;;;2.53;;
17987;SDS011;9119;50.932;5.342;2023-06-26T10:00:01;5.77;;;2.13;;
17987;SDS011;9119;50.932;5.342;2023-06-26T10:02:28;6.27;;;2.33;;
17987;SDS011;9119;50.932;5.342;2023-06-26T10:04:53;9.73;;;2.33;;
17987;SDS011;9119;50.932;5.342;2023-06-26T10:07:19;4.82;;;1.98;;
17987;SDS011;9119;50.932;5.342;2023-06-26T10:09:47;7.72;;;2.17;;
17987;SDS011;9119;50.932;5.342;2023-06-26T10:14:55;10.67;;;2.10;;
17987;SDS011;9119;50.932;5.342;2023-06-26T10:17:22;9.37;;;2.33;;
17987;SDS011;9119;50.932;5.342;2023-06-26T10:19:52;11.90;;;2.47;;
17987;SDS011;9119;50.932;5.342;2023-06-26T10:22:21;4.93;;;1.90;;
17987;SDS011;9119;50.932;5.342;2023-06-26T10:24:50;6.45;;;3.00;;
17987;SDS011;9119;50.932;5.342;2023-06-26T10:27:18;3.60;;;1.48;;
17987;SDS011;9119;50.932;5.342;2023-06-26T10:29:49;8.80;;;1.77;;
17987;SDS011;9119;50.932;5.342;2023-06-26T10:32:18;5.00;;;1.60;;
17987;SDS011;9119;50.932;5.342;2023-06-26T10:34:46;11.87;;;1.90;;
17987;SDS011;9119;50.932;5.342;2023-06-26T10:37:12;19.23;;;2.00;;
17987;SDS011;9119;50.932;5.342;2023-06-26T10:39:48;7.20;;;1.60;;
17987;SDS011;9119;50.932;5.342;2023-06-26T10:42:15;13.77;;;1.98;;
17987;SDS011;9119;50.932;5.342;2023-06-26T10:44:46;8.30;;;1.90;;
17987;SDS011;9119;50.932;5.342;2023-06-26T10:47:33;5.55;;;1.70;;
17987;SDS011;9119;50.932;5.342;2023-06-26T10:52:44;5.83;;;1.77;;
17987;SDS011;9119;50.932;5.342;2023-06-26T10:55:10;7.57;;;1.80;;
17987;SDS011;9119;50.932;5.342;2023-06-26T10:57:36;5.13;;;1.97;;
17987;SDS011;9119;50.932;5.342;2023-06-26T11:00:10;7.03;;;1.60;;
17987;SDS011;9119;50.932;5.342;2023-06-26T11:02:51;8.93;;;1.97;;
17987;SDS011;9119;50.932;5.342;2023-06-26T11:05:27;4.95;;;1.75;;
17987;SDS011;9119;50.932;5.342;2023-06-26T11:10:48;9.07;;;1.67;;
17987;SDS011;9119;50.932;5.342;2023-06-26T11:13:19;4.30;;;1.45;;
17987;SDS011;9119;50.932;5.342;2023-06-26T11:15:54;4.93;;;1.63;;
17987;SDS011;9119;50.932;5.342;2023-06-26T11:18:21;8.93;;;1.73;;
17987;SDS011;9119;50.932;5.342;2023-06-26T11:20:49;4.73;;;1.60;;
17987;SDS011;9119;50.932;5.342;2023-06-26T11:23:14;7.83;;;1.60;;
17987;SDS011;9119;50.932;5.342;2023-06-26T11:25:47;7.27;;;2.17;;
17987;SDS011;9119;50.932;5.342;2023-06-26T11:28:13;10.60;;;1.90;;
17987;SDS011;9119;50.932;5.342;2023-06-26T11:30:39;7.90;;;1.67;;
17987;SDS011;9119;50.932;5.342;2023-06-26T11:33:09;6.73;;;1.80;;
17987;SDS011;9119;50.932;5.342;2023-06-26T11:35:35;6.20;;;1.63;;
17987;SDS011;9119;50.932;5.342;2023-06-26T11:38:02;7.47;;;1.80;;
17987;SDS011;9119;50.932;5.342;2023-06-26T11:40:34;5.13;;;1.70;;
17987;SDS011;9119;50.932;5.342;2023-06-26T11:43:01;6.17;;;1.40;;
17987;SDS011;9119;50.932;5.342;2023-06-26T11:45:28;5.60;;;1.60;;
17987;SDS011;9119;50.932;5.342;2023-06-26T11:47:56;4.83;;;1.47;;
17987;SDS011;9119;50.932;5.342;2023-06-26T11:50:22;4.67;;;1.60;;
17987;SDS011;9119;50.932;5.342;2023-06-26T11:52:53;3.43;;;1.73;;
17987;SDS011;9119;50.932;5.342;2023-06-26T11:55:26;4.53;;;1.83;;
17987;SDS011;9119;50.932;5.342;2023-06-26T11:57:55;7.77;;;1.83;;
17987;SDS011;9119;50.932;5.342;2023-06-26T12:00:22;8.07;;;1.67;;
17987;SDS011;9119;50.932;5.342;2023-06-26T12:02:48;7.78;;;1.77;;
17987;SDS011;9119;50.932;5.342;2023-06-26T12:05:17;7.35;;;1.50;;
17987;SDS011;9119;50.932;5.342;2023-06-26T12:07:44;6.28;;;1.90;;
17987;SDS011;9119;50.932;5.342;2023-06-26T12:10:12;6.65;;;1.60;;
17987;SDS011;9119;50.932;5.342;2023-06-26T12:12:39;6.95;;;1.77;;
17987;SDS011;9119;50.932;5.342;2023-06-26T12:15:06;5.30;;;1.75;;
17987;SDS011;9119;50.932;5.342;2023-06-26T12:17:33;12.90;;;2.05;;
17987;SDS011;9119;50.932;5.342;2023-06-26T12:20:04;8.02;;;1.77;;
17987;SDS011;9119;50.932;5.342;2023-06-26T12:22:34;5.40;;;1.80;;
17987;SDS011;9119;50.932;5.342;2023-06-26T12:25:00;8.07;;;1.80;;
17987;SDS011;9119;50.932;5.342;2023-06-26T12:27:26;8.23;;;2.17;;
17987;SDS011;9119;50.932;5.342;2023-06-26T12:29:53;8.33;;;1.90;;
17987;SDS011;9119;50.932;5.342;2023-06-26T12:32:21;3.47;;;1.60;;
17987;SDS011;9119;50.932;5.342;2023-06-26T12:34:49;5.10;;;1.60;;
17987;SDS011;9119;50.932;5.342;2023-06-26T12:37:15;4.13;;;1.33;;
17987;SDS011;9119;50.932;5.342;2023-06-26T12:39:45;7.47;;;1.77;;
17987;SDS011;9119;50.932;5.342;2023-06-26T12:42:18;14.27;;;2.63;;
17987;SDS011;9119;50.932;5.342;2023-06-26T12:44:49;7.40;;;1.47;;
17987;SDS011;9119;50.932;5.342;2023-06-26T12:47:16;7.10;;;1.80;;
17987;SDS011;9119;50.932;5.342;2023-06-26T12:49:43;11.17;;;2.10;;
17987;SDS011;9119;50.932;5.342;2023-06-26T12:52:13;5.50;;;1.80;;
17987;SDS011;9119;50.932;5.342;2023-06-26T12:54:41;7.53;;;1.47;;
17987;SDS011;9119;50.932;5.342;2023-06-26T12:57:08;6.60;;;1.70;;
17987;SDS011;9119;50.932;5.342;2023-06-26T12:59:37;3.40;;;1.60;;
17987;SDS011;9119;50.932;5.342;2023-06-26T13:02:03;3.60;;;1.47;;
17987;SDS011;9119;50.932;5.342;2023-06-26T13:04:29;9.10;;;2.00;;
17987;SDS011;9119;50.932;5.342;2023-06-26T13:06:56;4.68;;;1.80;;
17987;SDS011;9119;50.932;5.342;2023-06-26T13:09:22;5.13;;;1.48;;
17987;SDS011;9119;50.932;5.342;2023-06-26T13:11:49;5.70;;;1.73;;
17987;SDS011;9119;50.932;5.342;2023-06-26T13:14:15;10.77;;;1.98;;
17987;SDS011;9119;50.932;5.342;2023-06-26T13:16:41;7.82;;;1.48;;
17987;SDS011;9119;50.932;5.342;2023-06-26T13:19:07;5.35;;;1.60;;
17987;SDS011;9119;50.932;5.342;2023-06-26T13:21:33;3.90;;;1.48;;
17987;SDS011;9119;50.932;5.342;2023-06-26T13:23:59;3.67;;;1.60;;
17987;SDS011;9119;50.932;5.342;2023-06-26T13:26:25;4.80;;;1.70;;
17987;SDS011;9119;50.932;5.342;2023-06-26T13:28:53;9.70;;;1.83;;
17987;SDS011;9119;50.932;5.342;2023-06-26T13:31:18;9.30;;;1.87;;
17987;SDS011;9119;50.932;5.342;2023-06-26T13:33:44;11.20;;;2.10;;
17987;SDS011;9119;50.932;5.342;2023-06-26T13:36:13;4.97;;;1.52;;
17987;SDS011;9119;50.932;5.342;2023-06-26T13:38:39;4.70;;;1.50;;
17987;SDS011;9119;50.932;5.342;2023-06-26T13:41:05;6.03;;;1.90;;
17987;SDS011;9119;50.932;5.342;2023-06-26T13:43:31;7.35;;;2.17;;
17987;SDS011;9119;50.932;5.342;2023-06-26T13:45:57;4.90;;;1.67;;
17987;SDS011;9119;50.932;5.342;2023-06-26T13:48:22;5.57;;;1.53;;
17987;SDS011;9119;50.932;5.342;2023-06-26T13:50:51;7.10;;;1.70;;
17987;SDS011;9119;50.932;5.342;2023-06-26T13:53:18;5.17;;;1.83;;
17987;SDS011;9119;50.932;5.342;2023-06-26T13:55:44;6.80;;;1.80;;
17987;SDS011;9119;50.932;5.342;2023-06-26T13:58:09;8.43;;;1.73;;
17987;SDS011;9119;50.932;5.342;2023-06-26T14:00:36;9.17;;;1.80;;
17987;SDS011;9119;50.932;5.342;2023-06-26T14:03:03;8.03;;;1.80;;
17987;SDS011;9119;50.932;5.342;2023-06-26T14:05:32;3.70;;;1.40;;
17987;SDS011;9119;50.932;5.342;2023-06-26T14:07:58;5.93;;;1.57;;
17987;SDS011;9119;50.932;5.342;2023-06-26T14:10:28;6.53;;;1.80;;
17987;SDS011;9119;50.932;5.342;2023-06-26T14:12:53;6.37;;;1.73;;
17987;SDS011;9119;50.932;5.342;2023-06-26T14:15:19;4.60;;;1.80;;
17987;SDS011;9119;50.932;5.342;2023-06-26T14:17:45;7.67;;;1.80;;
17987;SDS011;9119;50.932;5.342;2023-06-26T14:20:12;12.27;;;1.97;;
17987;SDS011;9119;50.932;5.342;2023-06-26T14:22:39;7.63;;;1.60;;
17987;SDS011;9119;50.932;5.342;2023-06-26T14:25:06;6.13;;;2.17;;
17987;SDS011;9119;50.932;5.342;2023-06-26T14:27:32;10.27;;;2.17;;
17987;SDS011;9119;50.932;5.342;2023-06-26T14:29:58;7.80;;;2.10;;
17987;SDS011;9119;50.932;5.342;2023-06-26T14:32:23;6.47;;;1.90;;
17987;SDS011;9119;50.932;5.342;2023-06-26T14:34:49;5.43;;;1.60;;
17987;SDS011;9119;50.932;5.342;2023-06-26T14:37:14;4.93;;;1.77;;
17987;SDS011;9119;50.932;5.342;2023-06-26T14:39:41;5.93;;;1.80;;
17987;SDS011;9119;50.932;5.342;2023-06-26T14:42:07;4.13;;;1.70;;
17987;SDS011;9119;50.932;5.342;2023-06-26T14:44:32;7.00;;;1.80;;
17987;SDS011;9119;50.932;5.342;2023-06-26T14:46:58;6.43;;;1.90;;
17987;SDS011;9119;50.932;5.342;2023-06-26T14:49:24;4.73;;;1.70;;
17987;SDS011;9119;50.932;5.342;2023-06-26T14:51:49;7.07;;;1.47;;
17987;SDS011;9119;50.932;5.342;2023-06-26T14:54:15;7.10;;;1.93;;
17987;SDS011;9119;50.932;5.342;2023-06-26T14:56:41;8.33;;;2.13;;
17987;SDS011;9119;50.932;5.342;2023-06-26T14:59:09;4.20;;;1.63;;
17987;SDS011;9119;50.932;5.342;2023-06-26T15:01:35;6.50;;;1.80;;
17987;SDS011;9119;50.932;5.342;2023-06-26T15:04:01;6.20;;;2.00;;
17987;SDS011;9119;50.932;5.342;2023-06-26T15:06:26;4.17;;;2.07;;
17987;SDS011;9119;50.932;5.342;2023-06-26T15:08:52;5.77;;;2.37;;
17987;SDS011;9119;50.932;5.342;2023-06-26T15:11:18;7.57;;;2.10;;